Decoded Metar for KLGU (LOGAN in UT, USA) (IATA:LGU) | Meteo·Mobile Aviation Weather
aviador You're here:

KLGU Decoded Metar

LOGAN in UT, USA
Report Time2018-12-10 16:16:00
UTC Time2018-12-10 16:23:53
Flight Rules mvfr MVFR
Wind110° at 05 kt
W.Decomp.*RWY 10: 5.0 kt HW 0.3 kt LCW
RWY 17: 1.4 kt HW 4.8 kt LCW
W.Rank110° ranks 28
Current wind is below 110° avg. (5.8)
Visibility6437 m
Phenomena:Mist
Clouds:Scattered 010 Hf
Expected CloudBase > 800 ft AGL from Temp-Dew spread
CeilingNone
Temp-7°C (ISA -13)
Dew Point-9°C (86% RH)
AAT-11.8°C
QNH1027 hPa
Density Alt2,425 ft
Elevation4,457 ft
Report Wrong Elevation
Raw Report
SPECI KLGU 101616Z AUTO 11005KT 4SM BR SCT010 M07/M09 A3033 RMK AO2
T10671089=

Extra information for KLGU:More info

Metar Taf Metar & Taf Last 4 Metars F.Rules Stats Wind Profile Meteogram Temp Stats Airport Information Weather charts Add Link Nearby VenuesMetar ALERT Operation Metar Decoded Social comments

AIRNAV info for KLGU